createdAt,value
2023-04-26T00:00:06.430Z,31.46
2023-04-26T00:01:06.504Z,31.44
2023-04-26T00:02:06.563Z,31.44
2023-04-26T00:03:06.763Z,31.48
2023-04-26T00:04:06.900Z,31.44
2023-04-26T00:05:07.028Z,31.45
2023-04-26T00:06:06.852Z,31.44
2023-04-26T00:07:06.857Z,31.48
2023-04-26T00:08:06.991Z,31.49
2023-04-26T00:09:06.990Z,31.51
2023-04-26T00:10:07.049Z,31.48
2023-04-26T00:11:07.104Z,31.49
2023-04-26T00:12:07.158Z,31.48
2023-04-26T00:13:07.253Z,31.48
2023-04-26T00:14:07.302Z,31.46
2023-04-26T00:15:07.354Z,31.45
2023-04-26T00:16:07.436Z,31.51
2023-04-26T00:17:07.463Z,31.49
2023-04-26T00:18:07.563Z,31.48
2023-04-26T00:19:07.688Z,31.48
2023-04-26T00:20:07.697Z,31.49
2023-04-26T00:21:07.707Z,31.49
2023-04-26T00:22:07.789Z,31.45
2023-04-26T00:23:07.822Z,31.43
2023-04-26T00:24:07.898Z,31.46
2023-04-26T00:25:07.951Z,31.45
2023-04-26T00:26:08.000Z,31.49
2023-04-26T00:27:08.059Z,31.49
2023-04-26T00:28:08.129Z,31.48
2023-04-26T00:29:08.217Z,31.50
2023-04-26T00:30:08.235Z,31.48
2023-04-26T00:31:08.303Z,31.47
2023-04-26T00:32:08.415Z,31.49
2023-04-26T00:33:08.512Z,31.52
2023-04-26T00:34:08.501Z,31.52
2023-04-26T00:35:08.573Z,31.46
2023-04-26T00:36:08.606Z,31.46
2023-04-26T00:37:08.664Z,31.46
2023-04-26T00:38:08.737Z,31.50
2023-04-26T00:39:08.793Z,31.48
2023-04-26T00:40:08.855Z,31.46
2023-04-26T00:41:08.946Z,31.46
2023-04-26T00:42:09.001Z,31.48
2023-04-26T00:43:09.034Z,31.47
2023-04-26T00:44:09.104Z,31.50
2023-04-26T00:45:09.158Z,31.48
2023-04-26T00:46:09.247Z,31.54
2023-04-26T00:47:09.298Z,31.49
2023-04-26T00:48:09.403Z,31.47
2023-04-26T00:49:09.410Z,31.50
2023-04-26T00:50:09.478Z,31.52
2023-04-26T00:51:09.541Z,31.54
2023-04-26T00:52:09.604Z,31.50
2023-04-26T00:53:09.671Z,31.50
2023-04-26T00:54:09.720Z,31.48
2023-04-26T00:55:09.767Z,31.53
2023-04-26T00:56:09.883Z,31.49
2023-04-26T00:57:09.899Z,31.54
2023-04-26T00:58:09.956Z,31.46
2023-04-26T00:59:10.053Z,31.50
2023-04-26T01:00:10.098Z,31.47
2023-04-26T01:01:10.212Z,31.52
2023-04-26T01:02:10.254Z,31.51
2023-04-26T01:03:10.380Z,31.51
2023-04-26T01:04:10.389Z,31.50
2023-04-26T01:05:10.407Z,31.51
2023-04-26T01:06:10.480Z,31.51
2023-04-26T01:07:10.567Z,31.49
2023-04-26T01:08:10.592Z,31.51
2023-04-26T01:09:10.686Z,31.51
2023-04-26T01:10:10.744Z,31.51
2023-04-26T01:11:10.778Z,31.51
2023-04-26T01:12:10.837Z,31.56
2023-04-26T01:13:10.902Z,31.47
2023-04-26T01:14:10.963Z,31.51
2023-04-26T01:15:11.003Z,31.57
2023-04-26T01:16:11.026Z,31.53
2023-04-26T01:17:11.145Z,31.53
2023-04-26T01:18:11.151Z,31.56
2023-04-26T01:19:11.173Z,31.53
2023-04-26T01:20:11.221Z,31.57
2023-04-26T01:21:11.295Z,31.54
2023-04-26T01:22:11.350Z,31.54
2023-04-26T01:23:11.415Z,31.56
2023-04-26T01:24:11.470Z,31.51
2023-04-26T01:25:11.529Z,31.56
2023-04-26T01:26:11.567Z,31.58
2023-04-26T01:27:11.592Z,31.53
2023-04-26T01:28:11.605Z,31.55
2023-04-26T01:29:11.637Z,31.56
2023-04-26T01:30:11.715Z,31.58
2023-04-26T01:31:11.735Z,31.61
2023-04-26T01:32:11.825Z,31.57
2023-04-26T01:33:11.760Z,31.51
2023-04-26T01:34:11.835Z,31.60
2023-04-26T01:35:11.893Z,31.57
2023-04-26T01:36:11.911Z,31.59
2023-04-26T01:37:11.935Z,31.61
2023-04-26T01:38:11.999Z,31.60
2023-04-26T01:39:11.993Z,31.55
2023-04-26T01:40:12.093Z,31.58
2023-04-26T01:41:12.103Z,31.58
2023-04-26T01:42:12.124Z,31.57
2023-04-26T01:43:12.139Z,31.59
2023-04-26T01:44:12.176Z,31.59
2023-04-26T01:45:12.178Z,31.60
2023-04-26T01:46:12.212Z,31.59
2023-04-26T01:47:12.256Z,31.57
2023-04-26T01:48:12.280Z,31.57
2023-04-26T01:49:12.313Z,31.56
2023-04-26T01:50:12.371Z,31.61
2023-04-26T01:51:12.361Z,31.59
2023-04-26T01:52:12.369Z,31.58
2023-04-26T01:53:12.399Z,31.58
2023-04-26T01:54:12.394Z,31.58
2023-04-26T01:55:12.403Z,31.58
2023-04-26T01:56:12.441Z,31.61
2023-04-26T01:57:12.469Z,31.59
2023-04-26T01:58:12.531Z,31.55
2023-04-26T01:59:12.577Z,31.55
2023-04-26T02:00:12.584Z,31.62
2023-04-26T02:01:12.683Z,31.59
2023-04-26T02:02:12.753Z,31.58
2023-04-26T02:03:12.829Z,31.56
2023-04-26T02:04:12.732Z,31.61
2023-04-26T02:05:12.793Z,31.65
2023-04-26T02:06:12.769Z,31.61
2023-04-26T02:07:12.782Z,31.56
2023-04-26T02:08:12.834Z,31.61
2023-04-26T02:09:12.868Z,31.59
2023-04-26T02:10:12.857Z,31.62
2023-04-26T02:11:12.868Z,31.59
2023-04-26T02:12:12.878Z,31.62
2023-04-26T02:13:12.910Z,31.59
2023-04-26T02:14:12.971Z,31.63
2023-04-26T02:15:12.997Z,31.62
2023-04-26T02:16:13.060Z,31.64
2023-04-26T02:17:13.039Z,31.61
2023-04-26T02:18:13.104Z,31.65
2023-04-26T02:19:13.083Z,31.62
2023-04-26T02:20:13.156Z,31.62
2023-04-26T02:21:13.159Z,31.64
2023-04-26T02:22:13.171Z,31.65
2023-04-26T02:23:13.198Z,31.66
2023-04-26T02:24:13.207Z,31.67
2023-04-26T02:25:13.231Z,31.63
2023-04-26T02:26:13.246Z,31.67
2023-04-26T02:27:13.232Z,31.69
2023-04-26T02:28:13.304Z,31.68
2023-04-26T02:29:13.299Z,31.67
2023-04-26T02:30:13.343Z,31.67
2023-04-26T02:31:13.379Z,31.72
2023-04-26T02:32:13.387Z,31.72
2023-04-26T02:33:13.392Z,31.67
2023-04-26T02:34:13.385Z,31.67
2023-04-26T02:35:13.452Z,31.69
2023-04-26T02:36:13.458Z,31.70
2023-04-26T02:37:13.489Z,31.75
2023-04-26T02:38:13.483Z,31.69
2023-04-26T02:39:13.529Z,31.69
2023-04-26T02:40:13.571Z,31.67
2023-04-26T02:41:13.594Z,31.67
2023-04-26T02:42:13.565Z,31.69
2023-04-26T02:43:13.575Z,31.66
2023-04-26T02:44:13.573Z,31.69
2023-04-26T02:45:13.607Z,31.70
2023-04-26T02:46:14.169Z,31.69
2023-04-26T02:47:13.614Z,31.69
2023-04-26T02:48:13.648Z,31.67
2023-04-26T02:49:13.679Z,31.68
2023-04-26T02:50:13.717Z,31.66
2023-04-26T02:51:13.724Z,31.73
2023-04-26T02:52:13.757Z,31.67
2023-04-26T02:53:13.797Z,31.66
2023-04-26T02:54:13.755Z,31.70
2023-04-26T02:55:13.787Z,31.72
2023-04-26T02:56:13.808Z,31.67
2023-04-26T02:57:13.834Z,31.70
2023-04-26T02:58:13.890Z,31.72
2023-04-26T02:59:13.880Z,31.70
2023-04-26T03:00:14.032Z,31.72
2023-04-26T03:01:14.005Z,31.72
2023-04-26T03:02:13.996Z,31.72
2023-04-26T03:03:14.116Z,31.71
2023-04-26T03:04:14.080Z,31.70
2023-04-26T03:05:13.974Z,31.67
2023-04-26T03:06:13.995Z,31.70
2023-04-26T03:07:14.008Z,31.66
2023-04-26T03:08:14.021Z,31.72
2023-04-26T03:09:14.008Z,31.68
2023-04-26T03:10:14.029Z,31.71
2023-04-26T03:11:14.027Z,31.71
2023-04-26T03:12:14.013Z,31.72
2023-04-26T03:13:14.018Z,31.72
2023-04-26T03:14:14.043Z,31.68
2023-04-26T03:15:14.010Z,31.70
2023-04-26T03:16:14.039Z,31.72
2023-04-26T03:17:14.024Z,31.70
2023-04-26T03:18:14.062Z,31.74
2023-04-26T03:19:14.055Z,31.74
2023-04-26T03:20:14.023Z,31.78
2023-04-26T03:21:14.002Z,31.75
2023-04-26T03:22:14.004Z,31.72
2023-04-26T03:23:13.998Z,31.77
2023-04-26T03:24:14.014Z,31.74
2023-04-26T03:25:14.000Z,31.78
2023-04-26T03:26:14.040Z,31.74
2023-04-26T03:27:14.037Z,31.75
2023-04-26T03:28:14.052Z,31.75
2023-04-26T03:29:14.027Z,31.78
2023-04-26T03:30:14.006Z,31.76
2023-04-26T03:31:14.028Z,31.78
2023-04-26T03:32:14.108Z,31.79
2023-04-26T03:33:14.066Z,31.76
2023-04-26T03:34:13.991Z,31.79
2023-04-26T03:35:14.012Z,31.75
2023-04-26T03:36:13.989Z,31.75
2023-04-26T03:37:13.988Z,31.78
2023-04-26T03:38:13.992Z,31.78
2023-04-26T03:39:13.981Z,31.82
2023-04-26T03:40:13.998Z,31.75
2023-04-26T03:41:14.020Z,31.75
2023-04-26T03:42:14.002Z,31.76
2023-04-26T03:43:13.955Z,31.76
2023-04-26T03:44:13.981Z,31.75
2023-04-26T03:45:13.960Z,31.79
2023-04-26T03:46:14.002Z,31.81
2023-04-26T03:47:13.947Z,31.78
2023-04-26T03:48:13.948Z,31.81
2023-04-26T03:49:13.964Z,31.82
2023-04-26T03:50:13.946Z,31.79
2023-04-26T03:51:13.952Z,31.81
2023-04-26T03:52:13.967Z,31.78
2023-04-26T03:53:13.956Z,31.79
2023-04-26T03:54:13.959Z,31.82
2023-04-26T03:55:13.962Z,31.83
2023-04-26T03:56:13.957Z,31.85
2023-04-26T03:57:13.973Z,31.82
2023-04-26T03:58:13.942Z,31.79
2023-04-26T03:59:13.990Z,31.85
2023-04-26T04:00:13.954Z,31.82
2023-04-26T04:01:13.965Z,31.83
2023-04-26T04:02:13.999Z,31.83
2023-04-26T04:03:14.081Z,31.86
2023-04-26T04:04:14.314Z,31.86
2023-04-26T04:05:14.057Z,31.87
2023-04-26T04:06:13.939Z,31.87
2023-04-26T04:07:13.942Z,31.86
2023-04-26T04:08:13.910Z,31.84
2023-04-26T04:09:13.934Z,31.89
2023-04-26T04:10:13.967Z,31.84
2023-04-26T04:11:13.938Z,31.86
2023-04-26T04:12:13.962Z,31.84
2023-04-26T04:13:13.902Z,31.85
2023-04-26T04:14:13.953Z,31.86
2023-04-26T04:15:13.936Z,31.87
2023-04-26T04:16:13.984Z,31.82
2023-04-26T04:17:13.900Z,31.87
2023-04-26T04:18:13.938Z,31.83
2023-04-26T04:19:13.927Z,31.86
2023-04-26T04:20:13.885Z,31.87
2023-04-26T04:21:13.888Z,31.83
2023-04-26T04:22:13.880Z,31.90
2023-04-26T04:23:13.936Z,31.89
2023-04-26T04:24:13.897Z,31.87
2023-04-26T04:25:13.886Z,31.83
2023-04-26T04:26:13.916Z,31.87
2023-04-26T04:27:13.895Z,31.84
2023-04-26T04:28:13.897Z,31.82
2023-04-26T04:29:13.887Z,31.83
2023-04-26T04:30:13.886Z,31.89
2023-04-26T04:31:13.945Z,31.83
2023-04-26T04:32:13.880Z,31.85
2023-04-26T04:33:13.894Z,31.82
2023-04-26T04:34:13.912Z,31.82
2023-04-26T04:35:13.918Z,31.85
2023-04-26T04:36:13.912Z,31.85
2023-04-26T04:37:13.898Z,31.80
2023-04-26T04:38:13.914Z,31.82
2023-04-26T04:39:13.898Z,31.82
2023-04-26T04:40:13.940Z,31.83
2023-04-26T04:41:13.896Z,31.83
2023-04-26T04:42:13.908Z,31.83
2023-04-26T04:43:13.925Z,31.83
2023-04-26T04:44:13.942Z,31.87
2023-04-26T04:45:13.941Z,31.84
2023-04-26T04:46:13.963Z,31.87
2023-04-26T04:47:13.946Z,31.80
2023-04-26T04:48:13.949Z,31.83
2023-04-26T04:49:13.962Z,31.81
2023-04-26T04:50:13.990Z,31.83
2023-04-26T04:51:13.953Z,31.84
2023-04-26T04:52:13.957Z,31.82
2023-04-26T04:53:14.005Z,31.83
2023-04-26T04:54:13.972Z,31.85
2023-04-26T04:55:13.991Z,31.82
2023-04-26T04:56:13.995Z,31.83
2023-04-26T04:57:13.990Z,31.81
2023-04-26T04:58:13.988Z,31.81
2023-04-26T04:59:14.000Z,31.85
2023-04-26T05:00:14.002Z,31.81
2023-04-26T05:01:14.013Z,31.83
2023-04-26T05:02:14.118Z,31.83
2023-04-26T05:03:14.148Z,31.78
2023-04-26T05:04:14.153Z,31.82
2023-04-26T05:05:14.052Z,31.78
2023-04-26T05:06:14.022Z,31.79
2023-04-26T05:07:14.024Z,31.78
2023-04-26T05:08:14.019Z,31.75
2023-04-26T05:09:14.018Z,31.72
2023-04-26T05:10:14.034Z,31.75
2023-04-26T05:11:14.028Z,31.76
2023-04-26T05:12:14.031Z,31.74
2023-04-26T05:13:14.032Z,31.71
2023-04-26T05:14:14.041Z,31.68
2023-04-26T05:15:14.061Z,31.71
2023-04-26T05:16:14.078Z,31.74
2023-04-26T05:17:14.032Z,31.68
2023-04-26T05:18:14.112Z,31.70
2023-04-26T05:19:14.035Z,31.63
2023-04-26T05:20:14.037Z,31.64
2023-04-26T05:21:14.031Z,31.64
2023-04-26T05:22:14.038Z,31.67
2023-04-26T05:23:14.049Z,31.64
2023-04-26T05:24:14.023Z,31.61
2023-04-26T05:25:14.053Z,31.61
2023-04-26T05:26:14.114Z,31.57
2023-04-26T05:27:14.029Z,31.61
2023-04-26T05:28:14.074Z,31.29
2023-04-26T05:29:14.125Z,30.94
2023-04-26T05:30:14.035Z,30.66
2023-04-26T05:31:14.109Z,30.52
2023-04-26T05:32:14.061Z,29.96
2023-04-26T05:33:14.176Z,29.94
2023-04-26T05:34:14.157Z,29.86
2023-04-26T05:35:14.680Z,29.91
2023-04-26T05:36:14.427Z,29.88
2023-04-26T05:37:14.360Z,29.92
2023-04-26T05:38:14.394Z,30.04
2023-04-26T05:39:14.514Z,30.31
2023-04-26T05:40:14.564Z,30.51
2023-04-26T05:41:14.546Z,30.85
2023-04-26T05:42:16.363Z,30.84
2023-04-26T05:43:14.889Z,31.76
2023-04-26T05:44:14.595Z,31.78
2023-04-26T05:45:14.699Z,31.62
2023-04-26T05:46:14.622Z,31.88
2023-04-26T05:47:14.589Z,32.09
2023-04-26T05:48:14.766Z,32.36
2023-04-26T05:49:14.657Z,32.40
2023-04-26T05:50:14.698Z,32.62
2023-04-26T05:51:14.576Z,32.68
2023-04-26T05:52:14.586Z,32.73
2023-04-26T05:53:14.569Z,32.66
2023-04-26T05:54:14.524Z,32.71
2023-04-26T05:55:14.528Z,32.74
2023-04-26T05:56:14.562Z,32.99
2023-04-26T05:57:14.528Z,33.08
2023-04-26T05:58:14.529Z,33.17
2023-04-26T05:59:14.615Z,33.17
2023-04-26T06:00:14.565Z,33.60
2023-04-26T06:01:14.720Z,33.58
2023-04-26T06:02:14.541Z,33.67
2023-04-26T06:03:14.761Z,33.76
2023-04-26T06:04:14.740Z,34.04
2023-04-26T06:05:14.880Z,34.25
2023-04-26T06:06:14.546Z,34.33
2023-04-26T06:07:14.458Z,34.39
2023-04-26T06:08:14.433Z,34.80
2023-04-26T06:09:14.436Z,34.66
2023-04-26T06:10:14.469Z,34.71
2023-04-26T06:11:14.449Z,34.70
2023-04-26T06:12:14.447Z,34.81
2023-04-26T06:13:14.396Z,34.97
2023-04-26T06:14:28.763Z,34.85
2023-04-26T06:15:15.425Z,34.80
2023-04-26T06:16:14.445Z,34.76
2023-04-26T06:17:14.455Z,35.18
2023-04-26T06:18:14.439Z,35.04
2023-04-26T06:19:14.356Z,35.01
2023-04-26T06:20:14.392Z,35.18
2023-04-26T06:21:14.464Z,35.25
2023-04-26T06:22:14.338Z,35.20
2023-04-26T06:23:14.345Z,35.34
2023-04-26T06:24:14.411Z,35.30
2023-04-26T06:25:14.471Z,35.38
2023-04-26T06:26:14.534Z,35.50
2023-04-26T06:27:14.580Z,35.60
2023-04-26T06:28:14.640Z,35.59
2023-04-26T06:29:14.725Z,35.70
2023-04-26T06:30:15.200Z,35.67
2023-04-26T06:31:14.995Z,35.70
2023-04-26T06:32:14.897Z,35.84
2023-04-26T06:33:14.933Z,36.05
2023-04-26T06:34:14.992Z,35.98
2023-04-26T06:35:15.130Z,36.14
2023-04-26T06:36:15.113Z,36.32
2023-04-26T06:37:15.191Z,36.17
2023-04-26T06:38:15.214Z,36.21
2023-04-26T06:39:15.313Z,36.26
2023-04-26T06:40:15.708Z,36.85
2023-04-26T06:41:15.415Z,36.79
2023-04-26T06:42:15.471Z,36.95
2023-04-26T06:43:15.486Z,37.49
2023-04-26T06:44:15.504Z,37.36
2023-04-26T06:45:15.576Z,37.42
2023-04-26T06:46:15.629Z,37.25
2023-04-26T06:47:15.612Z,37.26
2023-04-26T06:48:15.673Z,37.28
2023-04-26T06:49:15.955Z,37.52
2023-04-26T06:50:15.886Z,37.61
2023-04-26T06:51:15.776Z,37.71
2023-04-26T06:52:15.875Z,38.12
2023-04-26T06:53:15.883Z,38.04
2023-04-26T06:54:15.892Z,38.16
2023-04-26T06:55:16.233Z,38.08
2023-04-26T06:56:15.998Z,38.35
2023-04-26T06:57:15.991Z,38.29
2023-04-26T06:58:16.014Z,38.18
2023-04-26T06:59:16.073Z,38.29
2023-04-26T07:00:16.132Z,38.07
2023-04-26T07:01:16.191Z,38.14
2023-04-26T07:02:16.270Z,38.37
2023-04-26T07:03:16.248Z,38.32
2023-04-26T07:04:16.263Z,38.60
2023-04-26T07:05:16.286Z,39.08
2023-04-26T07:06:16.173Z,38.60
2023-04-26T07:07:16.349Z,38.63
2023-04-26T07:08:16.212Z,38.56
2023-04-26T07:09:16.215Z,38.63
2023-04-26T07:10:16.249Z,38.67
2023-04-26T07:11:16.261Z,38.93
2023-04-26T07:12:16.306Z,38.84
2023-04-26T07:13:16.319Z,38.72
2023-04-26T07:14:16.317Z,38.84
2023-04-26T07:15:16.351Z,39.25
2023-04-26T07:16:16.380Z,38.96
2023-04-26T07:17:16.351Z,39.04
2023-04-26T07:18:16.420Z,39.66
2023-04-26T07:19:16.369Z,39.42
2023-04-26T07:20:16.414Z,39.32
2023-04-26T07:21:16.420Z,39.20
2023-04-26T07:22:16.467Z,39.07
2023-04-26T07:23:16.442Z,39.76
2023-04-26T07:24:16.587Z,39.35
2023-04-26T07:25:16.460Z,39.38
2023-04-26T07:26:16.466Z,39.49
2023-04-26T07:27:16.482Z,39.78
2023-04-26T07:28:16.484Z,39.74
2023-04-26T07:29:16.495Z,39.77
2023-04-26T07:30:16.582Z,40.19
2023-04-26T07:31:16.492Z,40.04
2023-04-26T07:32:16.519Z,39.94
2023-04-26T07:33:16.562Z,39.84
2023-04-26T07:34:16.528Z,39.77
2023-04-26T07:35:16.719Z,39.51
2023-04-26T07:36:16.521Z,39.52
2023-04-26T07:37:16.550Z,39.25
2023-04-26T07:38:16.504Z,38.99
2023-04-26T07:39:16.523Z,38.83
2023-04-26T07:40:16.656Z,38.50
2023-04-26T07:41:16.572Z,38.35
2023-04-26T07:42:16.549Z,38.13
2023-04-26T07:43:16.555Z,37.97
2023-04-26T07:44:16.553Z,37.85
2023-04-26T07:45:16.571Z,37.76
2023-04-26T07:46:16.735Z,37.58
2023-04-26T07:47:16.602Z,37.47
2023-04-26T07:48:16.650Z,37.34
2023-04-26T07:49:16.637Z,37.28
2023-04-26T07:50:16.745Z,37.18
2023-04-26T07:51:16.711Z,37.05
2023-04-26T07:52:16.745Z,36.98
2023-04-26T07:53:16.750Z,36.92
2023-04-26T07:54:16.787Z,36.76
2023-04-26T07:55:17.849Z,36.69
2023-04-26T07:56:17.001Z,36.61
2023-04-26T07:57:16.886Z,36.64
2023-04-26T07:58:16.981Z,36.49
2023-04-26T07:59:16.949Z,36.40
2023-04-26T08:00:17.243Z,36.33
2023-04-26T08:01:17.144Z,36.27
2023-04-26T08:02:17.174Z,36.12
2023-04-26T08:03:17.259Z,36.11
2023-04-26T08:04:17.270Z,36.04
2023-04-26T08:05:17.368Z,36.03
2023-04-26T08:06:17.332Z,35.95
2023-04-26T08:07:17.259Z,35.91
2023-04-26T08:08:18.981Z,35.89
2023-04-26T08:09:17.296Z,35.85
2023-04-26T08:10:18.266Z,35.76
2023-04-26T08:11:17.382Z,35.64
2023-04-26T08:12:18.242Z,35.56
2023-04-26T08:13:17.473Z,35.49
2023-04-26T08:14:17.519Z,35.49
2023-04-26T08:15:17.534Z,35.41
2023-04-26T08:16:17.619Z,35.36
2023-04-26T08:17:17.672Z,35.29
2023-04-26T08:18:17.686Z,35.20
2023-04-26T08:19:17.719Z,35.12
2023-04-26T08:20:17.872Z,35.10
2023-04-26T08:21:17.940Z,35.17
2023-04-26T08:22:17.885Z,35.00
2023-04-26T08:23:17.899Z,34.52
2023-04-26T08:24:17.973Z,34.32
2023-04-26T08:25:18.015Z,34.18
2023-04-26T08:26:18.071Z,32.56
2023-04-26T08:27:18.086Z,32.34
2023-04-26T08:28:18.280Z,31.60
2023-04-26T08:29:18.311Z,31.68
2023-04-26T08:30:18.848Z,32.91
2023-04-26T08:31:18.497Z,32.62
2023-04-26T08:32:18.357Z,32.49
2023-04-26T08:33:18.473Z,32.80
2023-04-26T08:34:18.527Z,32.89
2023-04-26T08:35:18.972Z,32.40
2023-04-26T08:36:19.281Z,32.63
2023-04-26T08:37:18.787Z,31.86
2023-04-26T08:38:18.748Z,30.37
2023-04-26T08:39:18.788Z,28.87
2023-04-26T08:40:19.285Z,30.87
2023-04-26T08:41:18.878Z,31.48
2023-04-26T08:42:18.905Z,31.75
2023-04-26T08:43:18.894Z,30.28
2023-04-26T08:44:19.145Z,31.12
2023-04-26T08:45:18.919Z,31.52
2023-04-26T08:46:18.930Z,31.85
2023-04-26T08:47:18.962Z,32.13
2023-04-26T08:48:19.117Z,32.46
2023-04-26T08:49:19.137Z,32.75
2023-04-26T08:50:19.297Z,32.81
2023-04-26T08:51:19.242Z,32.95
2023-04-26T08:52:19.297Z,32.99
2023-04-26T08:53:19.283Z,33.18
2023-04-26T08:54:19.355Z,33.07
2023-04-26T08:55:19.413Z,32.79
2023-04-26T08:56:19.459Z,33.51
2023-04-26T08:57:19.526Z,33.14
2023-04-26T08:58:19.536Z,33.27
2023-04-26T08:59:19.561Z,33.43
2023-04-26T09:00:19.759Z,33.58
2023-04-26T09:01:19.794Z,33.57
2023-04-26T09:02:19.737Z,33.07
2023-04-26T09:03:19.852Z,32.95
2023-04-26T09:04:19.971Z,32.99
2023-04-26T09:05:19.781Z,32.92
2023-04-26T09:06:20.271Z,32.64
2023-04-26T09:07:19.876Z,32.70
2023-04-26T09:08:19.901Z,33.34
2023-04-26T09:09:19.996Z,33.68
2023-04-26T09:10:19.952Z,33.67
2023-04-26T09:11:20.315Z,33.54
2023-04-26T09:12:20.044Z,33.95
2023-04-26T09:13:20.084Z,33.62
2023-04-26T09:14:20.094Z,33.58
2023-04-26T09:15:20.135Z,33.51
2023-04-26T09:16:20.280Z,33.44
2023-04-26T09:17:20.236Z,33.10
2023-04-26T09:18:20.253Z,32.91
2023-04-26T09:19:20.236Z,32.67
2023-04-26T09:20:20.281Z,32.79
2023-04-26T09:21:20.286Z,32.68
2023-04-26T09:22:20.282Z,33.24
2023-04-26T09:23:20.321Z,33.32
2023-04-26T09:24:20.357Z,33.25
2023-04-26T09:25:20.358Z,32.39
2023-04-26T09:26:20.428Z,32.65
2023-04-26T09:27:20.418Z,32.51
2023-04-26T09:28:20.381Z,32.69
2023-04-26T09:29:20.431Z,33.11
2023-04-26T09:30:20.434Z,30.34
2023-04-26T09:31:21.330Z,28.47
2023-04-26T09:32:20.558Z,29.36
2023-04-26T09:33:20.576Z,30.08
2023-04-26T09:34:20.577Z,29.98
2023-04-26T09:35:20.589Z,29.97
2023-04-26T09:36:20.612Z,30.16
2023-04-26T09:37:20.677Z,30.25
2023-04-26T09:38:20.711Z,30.18
2023-04-26T09:39:20.726Z,30.23
2023-04-26T09:40:20.825Z,30.23
2023-04-26T09:41:21.334Z,30.22
2023-04-26T09:42:20.867Z,30.20
2023-04-26T09:43:20.938Z,30.20
2023-04-26T09:44:20.919Z,30.19
2023-04-26T09:45:20.910Z,30.21
2023-04-26T09:46:21.018Z,30.15
2023-04-26T09:47:20.949Z,30.21
2023-04-26T09:48:21.008Z,30.22
2023-04-26T09:49:21.008Z,30.24
2023-04-26T09:50:21.035Z,30.22
2023-04-26T09:51:21.386Z,30.20
2023-04-26T09:52:21.086Z,30.17
2023-04-26T09:53:21.148Z,30.20
2023-04-26T09:54:21.117Z,30.25
2023-04-26T09:55:34.174Z,30.27
2023-04-26T09:56:22.227Z,30.27
2023-04-26T09:57:21.143Z,30.28
2023-04-26T09:58:21.142Z,30.30
2023-04-26T09:59:21.105Z,30.34
2023-04-26T10:00:21.099Z,30.41
2023-04-26T10:01:21.267Z,30.37
2023-04-26T10:02:21.144Z,30.38
2023-04-26T10:03:21.258Z,30.43
2023-04-26T10:04:21.193Z,30.40
2023-04-26T10:05:21.109Z,30.37
2023-04-26T10:06:21.081Z,30.45
2023-04-26T10:07:21.100Z,30.41
2023-04-26T10:08:21.051Z,30.50
2023-04-26T10:09:21.039Z,30.44
2023-04-26T10:10:21.043Z,30.42
2023-04-26T10:11:21.065Z,30.47
2023-04-26T10:12:21.121Z,30.54
2023-04-26T10:13:21.021Z,30.51
2023-04-26T10:14:21.025Z,30.53
2023-04-26T10:15:21.015Z,30.53
2023-04-26T10:16:21.081Z,30.58
2023-04-26T10:17:21.106Z,30.61
2023-04-26T10:18:20.991Z,30.60
2023-04-26T10:19:20.968Z,30.61
2023-04-26T10:20:21.134Z,30.59
2023-04-26T10:21:21.094Z,30.62
2023-04-26T10:22:21.051Z,30.67
2023-04-26T10:23:21.081Z,30.68
2023-04-26T10:24:21.104Z,30.65
2023-04-26T10:25:21.140Z,30.68
2023-04-26T10:26:21.144Z,30.74
2023-04-26T10:27:21.142Z,30.75
2023-04-26T10:28:21.174Z,30.75
2023-04-26T10:29:21.805Z,30.72
2023-04-26T10:30:21.251Z,30.76
2023-04-26T10:31:21.372Z,30.74
2023-04-26T10:32:21.296Z,30.78
2023-04-26T10:33:21.382Z,30.79
2023-04-26T10:34:21.317Z,30.72
2023-04-26T10:35:21.353Z,30.77
2023-04-26T10:36:21.831Z,30.77
2023-04-26T10:37:21.392Z,30.73
2023-04-26T10:38:21.408Z,30.75
2023-04-26T10:39:21.463Z,30.80
2023-04-26T10:40:21.446Z,30.78
2023-04-26T10:41:21.833Z,30.81
2023-04-26T10:42:22.483Z,30.81
2023-04-26T10:43:21.904Z,30.81
2023-04-26T10:44:21.531Z,30.78
2023-04-26T10:45:21.553Z,30.77
2023-04-26T10:46:21.578Z,30.78
2023-04-26T10:47:21.659Z,30.75
2023-04-26T10:48:21.599Z,30.78
2023-04-26T10:49:22.105Z,30.78
2023-04-26T10:50:21.677Z,30.77
2023-04-26T10:51:21.979Z,30.78
2023-04-26T10:52:21.727Z,30.83
2023-04-26T10:53:21.784Z,30.81
2023-04-26T10:54:21.761Z,30.85
2023-04-26T10:55:21.952Z,30.82
2023-04-26T10:56:21.809Z,30.89
2023-04-26T10:57:21.832Z,30.91
2023-04-26T10:58:21.835Z,30.92
2023-04-26T10:59:39.734Z,30.86
2023-04-26T11:00:22.878Z,30.91
2023-04-26T11:01:21.927Z,30.88
2023-04-26T11:02:21.899Z,30.96
2023-04-26T11:03:21.953Z,30.83
2023-04-26T11:04:21.947Z,30.82
2023-04-26T11:05:23.525Z,30.88
2023-04-26T11:06:21.829Z,30.84
2023-04-26T11:07:21.848Z,30.85
2023-04-26T11:08:21.830Z,30.83
2023-04-26T11:09:21.809Z,30.86
2023-04-26T11:10:21.809Z,30.88
2023-04-26T11:11:21.809Z,30.90
2023-04-26T11:12:21.840Z,30.88
2023-04-26T11:13:21.812Z,30.83
2023-04-26T11:14:21.830Z,30.88
2023-04-26T11:15:21.794Z,30.86
2023-04-26T11:16:21.996Z,30.89
2023-04-26T11:17:21.801Z,30.92
2023-04-26T11:18:21.757Z,30.86
2023-04-26T11:19:21.767Z,30.91
2023-04-26T11:20:21.767Z,30.90
2023-04-26T11:21:21.867Z,30.91
2023-04-26T11:22:21.804Z,30.95
2023-04-26T11:23:21.730Z,30.86
2023-04-26T11:24:21.767Z,30.92
2023-04-26T11:25:21.720Z,30.89
2023-04-26T11:26:21.729Z,30.93
2023-04-26T11:27:21.715Z,30.92
2023-04-26T11:28:21.700Z,30.91
2023-04-26T11:29:21.734Z,30.89
2023-04-26T11:30:21.722Z,30.92
2023-04-26T11:31:21.816Z,30.86
2023-04-26T11:32:21.701Z,30.93
2023-04-26T11:33:21.667Z,30.93
2023-04-26T11:34:21.645Z,30.89
2023-04-26T11:35:21.649Z,30.94
2023-04-26T11:36:21.848Z,30.96
2023-04-26T11:37:21.641Z,30.95
2023-04-26T11:38:21.650Z,30.96
2023-04-26T11:39:21.620Z,30.93
2023-04-26T11:40:21.696Z,30.92
2023-04-26T11:41:21.870Z,30.99
2023-04-26T11:42:21.616Z,30.90
2023-04-26T11:43:21.620Z,30.91
2023-04-26T11:44:21.646Z,30.92
2023-04-26T11:45:21.584Z,30.93
2023-04-26T11:46:21.668Z,30.93
2023-04-26T11:47:21.568Z,30.96
2023-04-26T11:48:21.712Z,30.92
2023-04-26T11:49:21.563Z,30.89
2023-04-26T11:50:21.576Z,30.88
2023-04-26T11:51:21.560Z,30.98
2023-04-26T11:52:21.559Z,30.92
2023-04-26T11:53:21.581Z,30.93
2023-04-26T11:54:21.545Z,30.90
2023-04-26T11:55:21.521Z,30.91
2023-04-26T11:56:21.548Z,30.90
2023-04-26T11:57:21.501Z,30.91
2023-04-26T11:58:21.509Z,30.91
2023-04-26T11:59:21.506Z,30.83
2023-04-26T12:00:21.507Z,30.85
2023-04-26T12:01:21.515Z,30.88
2023-04-26T12:02:21.638Z,30.79
2023-04-26T12:03:21.752Z,30.72
2023-04-26T12:04:21.598Z,30.69
2023-04-26T12:05:21.469Z,30.64
2023-04-26T12:06:21.478Z,30.66
2023-04-26T12:07:21.441Z,30.70
2023-04-26T12:08:21.447Z,30.69
2023-04-26T12:09:21.469Z,30.74
2023-04-26T12:10:21.441Z,30.73
2023-04-26T12:11:21.462Z,30.73
2023-04-26T12:12:21.458Z,30.72
2023-04-26T12:13:21.456Z,30.73
2023-04-26T12:14:21.414Z,30.72
2023-04-26T12:15:21.435Z,30.69
2023-04-26T12:17:21.575Z,30.73
2023-04-26T12:18:21.489Z,30.69
2023-04-26T12:19:21.406Z,30.71
2023-04-26T12:20:21.409Z,30.73
2023-04-26T12:21:21.438Z,30.73
2023-04-26T12:22:21.419Z,30.72
2023-04-26T12:23:21.417Z,30.76
2023-04-26T12:24:21.410Z,30.76
2023-04-26T12:25:21.383Z,30.74
2023-04-26T12:26:21.375Z,30.72
2023-04-26T12:27:21.396Z,30.83
2023-04-26T12:28:21.481Z,30.79
2023-04-26T12:29:21.379Z,30.77
2023-04-26T12:30:21.362Z,30.77
2023-04-26T12:31:21.385Z,30.76
2023-04-26T12:32:22.656Z,30.80
2023-04-26T12:33:21.400Z,30.74
2023-04-26T12:34:21.323Z,30.82
2023-04-26T12:35:21.338Z,30.76
2023-04-26T12:36:21.325Z,30.80
2023-04-26T12:37:21.318Z,30.87
2023-04-26T12:38:21.305Z,30.87
2023-04-26T12:39:21.303Z,30.80
2023-04-26T12:40:21.385Z,30.77
2023-04-26T12:41:21.286Z,30.84
2023-04-26T12:42:21.268Z,30.84
2023-04-26T12:43:21.292Z,30.89
2023-04-26T12:44:22.614Z,30.80
2023-04-26T12:45:21.263Z,30.84
2023-04-26T12:46:21.264Z,30.84
2023-04-26T12:47:21.296Z,30.82
2023-04-26T12:48:21.299Z,30.85
2023-04-26T12:49:21.245Z,30.85
2023-04-26T12:50:21.274Z,30.81
2023-04-26T12:51:21.260Z,30.83
2023-04-26T12:52:21.262Z,30.84
2023-04-26T12:53:21.232Z,30.90